Time;durP1;ratioP1;P1;durP2;ratioP2;P2;SDS_P1;SDS_P2;PMS_P1;PMS_P2;Temp;Humidity;BMP_temperature;BMP_pressure;BME280_temperature;BME280_humidity;BME280_pressure;Samples;Min_cycle;Max_cycle;Signal;HPM_P1;HPM_P2
2021/06/10 00:02:17;;;;;;;18.53;16.90;;;;;;;;;;5113746;28;20445;-62
2021/06/10 00:04:43;;;;;;;17.40;15.80;;;;;;;;;;5113773;28;20559;-61
2021/06/10 00:07:10;;;;;;;18.93;17.23;;;;;;;;;;5113501;28;20446;-62
2021/06/10 00:09:37;;;;;;;20.50;18.60;;;;;;;;;;5113642;28;20480;-62
2021/06/10 00:12:06;;;;;;;19.67;17.83;;;;;;;;;;5113363;28;21029;-61
2021/06/10 00:14:33;;;;;;;19.10;17.50;;;;;;;;;;5113555;28;20461;-62
2021/06/10 00:17:00;;;;;;;18.17;16.57;;;;;;;;;;5113607;28;20506;-61
2021/06/10 00:19:26;;;;;;;19.70;17.80;;;;;;;;;;5113551;28;20442;-60
2021/06/10 00:21:53;;;;;;;19.43;17.73;;;;;;;;;;5113303;28;20951;-62
2021/06/10 00:24:20;;;;;;;19.10;17.40;;;;;;;;;;5123281;22;20984;-64
2021/06/10 00:26:47;;;;;;;17.90;16.10;;;;;;;;;;5097167;28;20442;-63
2021/06/10 00:29:15;;;;;;;17.67;16.07;;;;;;;;;;5098286;28;20523;-63
2021/06/10 00:31:42;;;;;;;17.50;16.00;;;;;;;;;;5097574;28;20447;-63
2021/06/10 00:34:08;;;;;;;19.37;17.60;;;;;;;;;;5097516;28;20485;-63
2021/06/10 00:36:35;;;;;;;21.17;19.30;;;;;;;;;;5097609;28;20998;-63
2021/06/10 00:39:02;;;;;;;25.53;22.83;;;;;;;;;;5097584;28;20442;-63
2021/06/10 00:41:32;;;;;;;21.50;19.50;;;;;;;;;;5097744;28;20929;-63
2021/06/10 00:43:59;;;;;;;20.33;18.33;;;;;;;;;;5097702;28;20545;-63
2021/06/10 00:46:27;;;;;;;21.87;19.70;;;;;;;;;;5097519;28;20446;-63
2021/06/10 00:48:54;;;;;;;24.27;21.67;;;;;;;;;;5097383;28;20476;-64
2021/06/10 00:51:21;;;;;;;23.30;21.10;;;;;;;;;;5096820;28;20434;-63
2021/06/10 00:53:48;;;;;;;22.67;20.60;;;;;;;;;;5097364;28;20973;-63
2021/06/10 00:56:15;;;;;;;21.67;19.80;;;;;;;;;;5097467;28;20864;-63
2021/06/10 00:58:42;;;;;;;21.17;19.23;;;;;;;;;;5097240;28;20445;-63
2021/06/10 01:01:09;;;;;;;23.10;21.00;;;;;;;;;;5097423;28;20446;-63
2021/06/10 01:03:37;;;;;;;22.30;20.00;;;;;;;;;;5097256;28;20462;-63
2021/06/10 01:06:06;;;;;;;23.70;21.40;;;;;;;;;;5097270;28;20515;-64
2021/06/10 01:08:38;;;;;;;23.50;21.10;;;;;;;;;;5096931;28;20480;-64
2021/06/10 01:11:13;;;;;;;22.83;20.60;;;;;;;;;;5097227;28;20422;-64
2021/06/10 01:13:44;;;;;;;23.07;20.90;;;;;;;;;;5096726;28;20519;-64
2021/06/10 01:16:12;;;;;;;23.73;21.53;;;;;;;;;;5096536;28;20442;-64
2021/06/10 01:18:41;;;;;;;22.83;20.63;;;;;;;;;;5096439;28;20454;-65
2021/06/10 01:21:08;;;;;;;23.70;21.47;;;;;;;;;;5096135;28;20442;-63
2021/06/10 01:23:41;;;;;;;22.17;20.07;;;;;;;;;;5095927;28;20996;-63
2021/06/10 01:26:10;;;;;;;21.90;19.93;;;;;;;;;;5096382;28;20435;-63
2021/06/10 01:28:40;;;;;;;21.70;19.80;;;;;;;;;;5096245;28;20829;-64
2021/06/10 01:31:08;;;;;;;22.77;20.47;;;;;;;;;;5096004;28;20825;-64
2021/06/10 01:33:37;;;;;;;22.80;20.57;;;;;;;;;;5096382;28;20458;-65
2021/06/10 01:36:08;;;;;;;22.83;20.67;;;;;;;;;;5096095;28;20443;-64
2021/06/10 01:38:35;;;;;;;23.40;21.10;;;;;;;;;;5096206;28;20771;-65
2021/06/10 01:41:03;;;;;;;21.83;19.93;;;;;;;;;;5096052;28;20488;-64
2021/06/10 01:43:32;;;;;;;22.03;19.97;;;;;;;;;;5095959;28;20465;-64
2021/06/10 01:46:00;;;;;;;20.50;18.63;;;;;;;;;;5095676;28;20784;-64
2021/06/10 01:48:28;;;;;;;21.27;19.20;;;;;;;;;;5095846;28;20446;-65
2021/06/10 01:50:56;;;;;;;21.47;19.27;;;;;;;;;;5095851;28;20442;-64
2021/06/10 01:53:23;;;;;;;21.53;19.43;;;;;;;;;;5095457;28;20527;-64
2021/06/10 01:55:51;;;;;;;20.30;18.50;;;;;;;;;;5095772;28;20446;-64
2021/06/10 01:58:19;;;;;;;21.50;19.60;;;;;;;;;;5095709;28;20442;-64
2021/06/10 02:00:47;;;;;;;23.67;21.67;;;;;;;;;;5095702;28;20451;-64
2021/06/10 02:03:15;;;;;;;21.17;19.27;;;;;;;;;;5095607;28;20462;-64
2021/06/10 02:05:42;;;;;;;21.67;19.77;;;;;;;;;;5095606;28;20447;-64
2021/06/10 02:08:09;;;;;;;21.40;19.20;;;;;;;;;;5095239;28;20434;-65
2021/06/10 02:10:37;;;;;;;21.40;19.50;;;;;;;;;;5095088;28;21031;-64
2021/06/10 02:13:04;;;;;;;21.40;19.40;;;;;;;;;;5095381;28;20470;-65
2021/06/10 02:15:31;;;;;;;20.40;18.40;;;;;;;;;;5095455;28;20438;-64
2021/06/10 02:17:58;;;;;;;22.57;20.40;;;;;;;;;;5095369;28;20445;-64
2021/06/10 02:20:26;;;;;;;20.47;18.67;;;;;;;;;;5095314;28;20442;-65
2021/06/10 02:22:53;;;;;;;21.53;19.53;;;;;;;;;;5095091;28;20438;-64
2021/06/10 02:25:19;;;;;;;20.87;18.87;;;;;;;;;;5095214;28;20430;-64
2021/06/10 02:27:46;;;;;;;20.40;18.50;;;;;;;;;;5095336;28;20451;-64
2021/06/10 02:30:14;;;;;;;19.90;18.10;;;;;;;;;;5094927;28;20474;-64
2021/06/10 02:32:41;;;;;;;20.37;18.57;;;;;;;;;;5094926;28;20869;-64
2021/06/10 02:35:09;;;;;;;21.33;19.30;;;;;;;;;;5094907;28;20938;-64
2021/06/10 02:37:38;;;;;;;21.13;19.30;;;;;;;;;;5095131;28;20438;-64
2021/06/10 02:40:06;;;;;;;21.83;19.83;;;;;;;;;;5095078;28;20447;-64
2021/06/10 02:42:32;;;;;;;21.10;19.17;;;;;;;;;;5094964;28;20442;-64
2021/06/10 02:44:59;;;;;;;22.43;20.33;;;;;;;;;;5094694;28;20446;-63
2021/06/10 02:47:27;;;;;;;23.30;21.07;;;;;;;;;;5094244;28;20449;-64
2021/06/10 02:49:54;;;;;;;23.13;20.93;;;;;;;;;;5094976;28;20470;-64
2021/06/10 02:52:22;;;;;;;22.33;20.33;;;;;;;;;;5095039;28;20470;-64
2021/06/10 02:54:50;;;;;;;22.77;20.57;;;;;;;;;;5094705;28;20477;-64
2021/06/10 02:57:20;;;;;;;23.43;21.37;;;;;;;;;;5094843;28;20450;-64
2021/06/10 02:59:47;;;;;;;23.03;20.83;;;;;;;;;;5094564;28;20447;-64
2021/06/10 03:02:15;;;;;;;21.30;19.00;;;;;;;;;;5094602;28;20496;-64
2021/06/10 03:04:42;;;;;;;20.50;18.60;;;;;;;;;;5094207;28;20462;-65
2021/06/10 03:07:10;;;;;;;20.83;19.00;;;;;;;;;;5094578;28;20438;-65
2021/06/10 03:09:38;;;;;;;19.63;17.93;;;;;;;;;;5094508;28;20473;-64
2021/06/10 03:12:08;;;;;;;18.90;17.30;;;;;;;;;;5094598;28;20450;-64
2021/06/10 03:14:35;;;;;;;19.63;17.53;;;;;;;;;;5094551;28;20837;-64
2021/06/10 03:17:02;;;;;;;19.50;17.40;;;;;;;;;;5094457;28;20815;-65
2021/06/10 03:19:29;;;;;;;22.20;20.20;;;;;;;;;;5094329;28;20450;-64
2021/06/10 03:21:56;;;;;;;20.77;18.77;;;;;;;;;;5094362;28;20446;-65
2021/06/10 03:24:23;;;;;;;21.17;19.17;;;;;;;;;;5093873;28;20470;-64
2021/06/10 03:26:50;;;;;;;23.60;19.70;;;;;;;;;;5094284;28;20446;-65
2021/06/10 03:29:20;;;;;;;21.87;19.77;;;;;;;;;;5093986;28;20474;-64
2021/06/10 03:31:47;;;;;;;20.77;18.93;;;;;;;;;;5095004;28;20466;-64
2021/06/10 03:34:14;;;;;;;20.97;18.77;;;;;;;;;;5094003;28;20820;-65
2021/06/10 03:36:41;;;;;;;22.60;20.37;;;;;;;;;;5093995;28;20813;-64
2021/06/10 03:39:08;;;;;;;21.73;19.83;;;;;;;;;;5093926;28;20504;-65
2021/06/10 03:41:35;;;;;;;21.97;20.10;;;;;;;;;;5093597;28;20438;-65
2021/06/10 03:44:02;;;;;;;22.17;19.97;;;;;;;;;;5093449;28;20473;-64
2021/06/10 03:46:31;;;;;;;21.63;19.50;;;;;;;;;;5093864;28;20446;-64
2021/06/10 03:48:57;;;;;;;20.97;19.07;;;;;;;;;;5093375;28;20523;-64
2021/06/10 03:51:24;;;;;;;20.63;18.60;;;;;;;;;;5093366;28;20937;-65
2021/06/10 03:53:53;;;;;;;20.30;18.30;;;;;;;;;;5093266;28;20496;-64
2021/06/10 03:56:19;;;;;;;21.13;18.97;;;;;;;;;;5093693;28;20545;-65
2021/06/10 03:58:46;;;;;;;19.83;18.03;;;;;;;;;;5092879;28;20454;-62
2021/06/10 04:01:13;;;;;;;19.20;17.50;;;;;;;;;;5093502;28;20515;-63
2021/06/10 04:03:41;;;;;;;20.47;18.47;;;;;;;;;;5093118;28;20462;-63
2021/06/10 04:08:10;;;;;;;19.10;17.40;;;;;;;;;;5169105;27;20528;-63
2021/06/10 04:10:37;;;;;;;19.40;17.80;;;;;;;;;;5152392;27;20481;-64
2021/06/10 04:13:04;;;;;;;19.60;17.90;;;;;;;;;;5152271;27;20452;-64
2021/06/10 04:15:31;;;;;;;19.50;17.80;;;;;;;;;;5152236;27;20432;-64
2021/06/10 04:17:57;;;;;;;19.50;17.80;;;;;;;;;;5152196;27;20440;-64
2021/06/10 04:20:24;;;;;;;18.33;16.80;;;;;;;;;;5152168;27;20440;-64
2021/06/10 04:22:51;;;;;;;20.00;18.00;;;;;;;;;;5151648;27;20999;-64
2021/06/10 04:25:19;;;;;;;19.50;17.47;;;;;;;;;;5152003;27;20463;-63
2021/06/10 04:27:46;;;;;;;19.77;18.03;;;;;;;;;;5151951;27;20521;-64
2021/06/10 04:30:13;;;;;;;19.93;18.07;;;;;;;;;;5151887;27;20501;-63
2021/06/10 04:32:41;;;;;;;18.90;17.10;;;;;;;;;;5151849;27;20445;-63
2021/06/10 04:35:08;;;;;;;19.03;17.33;;;;;;;;;;5151947;27;20446;-64
2021/06/10 04:37:35;;;;;;;17.63;16.07;;;;;;;;;;5151694;27;20437;-64
2021/06/10 04:40:02;;;;;;;18.90;17.10;;;;;;;;;;5151893;27;20441;-64
2021/06/10 04:42:30;;;;;;;18.73;16.97;;;;;;;;;;5152683;27;20496;-64
2021/06/10 04:44:57;;;;;;;18.37;16.77;;;;;;;;;;5152280;27;20474;-64
2021/06/10 04:47:24;;;;;;;19.40;17.60;;;;;;;;;;5152853;27;20843;-63
2021/06/10 04:49:51;;;;;;;17.63;16.03;;;;;;;;;;5152405;27;20446;-61
2021/06/10 04:52:18;;;;;;;19.27;17.67;;;;;;;;;;5152145;27;20495;-63
2021/06/10 04:54:44;;;;;;;19.80;18.10;;;;;;;;;;5151507;27;20466;-63
2021/06/10 04:57:11;;;;;;;17.80;16.30;;;;;;;;;;5151501;27;20448;-62
2021/06/10 04:59:39;;;;;;;20.57;18.47;;;;;;;;;;5151492;27;20446;-64
2021/06/10 05:02:06;;;;;;;18.70;17.03;;;;;;;;;;5151186;27;20444;-64
2021/06/10 05:04:33;;;;;;;18.57;16.80;;;;;;;;;;5151450;27;20834;-64
2021/06/10 05:07:00;;;;;;;19.73;17.73;;;;;;;;;;5150905;27;21004;-62
2021/06/10 05:09:26;;;;;;;18.77;16.93;;;;;;;;;;5151234;27;20441;-64
2021/06/10 05:11:53;;;;;;;19.90;17.63;;;;;;;;;;5151413;27;20497;-63
2021/06/10 05:14:20;;;;;;;20.03;16.93;;;;;;;;;;5151159;27;20468;-63
2021/06/10 05:16:49;;;;;;;19.43;17.40;;;;;;;;;;5150802;27;20921;-63
2021/06/10 05:19:16;;;;;;;19.20;17.60;;;;;;;;;;5139618;27;20796;-63
2021/06/10 05:21:43;;;;;;;20.87;17.43;;;;;;;;;;5137041;27;20475;-62
2021/06/10 05:24:11;;;;;;;17.23;15.53;;;;;;;;;;5137013;27;20976;-64
2021/06/10 05:26:38;;;;;;;17.23;15.60;;;;;;;;;;5137061;27;20899;-63
2021/06/10 05:29:05;;;;;;;18.40;16.80;;;;;;;;;;5137439;27;20441;-63
2021/06/10 05:31:33;;;;;;;18.27;16.67;;;;;;;;;;5137193;27;20443;-63
2021/06/10 05:34:01;;;;;;;18.03;16.43;;;;;;;;;;5137118;27;20473;-63
2021/06/10 05:36:28;;;;;;;17.33;15.80;;;;;;;;;;5136916;27;20448;-63
2021/06/10 05:38:54;;;;;;;17.30;15.90;;;;;;;;;;5137030;27;20432;-63
2021/06/10 05:41:21;;;;;;;16.67;15.23;;;;;;;;;;5137138;27;20466;-63
2021/06/10 05:43:48;;;;;;;16.83;15.33;;;;;;;;;;5136998;27;20529;-63
2021/06/10 05:46:15;;;;;;;16.73;15.33;;;;;;;;;;5136829;27;20485;-63
2021/06/10 05:48:42;;;;;;;17.20;15.60;;;;;;;;;;5137086;27;20497;-64
2021/06/10 05:51:10;;;;;;;16.80;15.30;;;;;;;;;;5136865;27;20499;-62
2021/06/10 05:53:37;;;;;;;17.33;15.83;;;;;;;;;;5136620;27;20468;-62
2021/06/10 05:56:03;;;;;;;16.43;14.73;;;;;;;;;;5136715;27;20440;-63
2021/06/10 05:58:30;;;;;;;16.77;15.17;;;;;;;;;;5142075;27;20856;-64
2021/06/10 06:00:57;;;;;;;17.00;15.50;;;;;;;;;;5147668;27;20442;-63
2021/06/10 06:03:26;;;;;;;16.80;15.10;;;;;;;;;;5148464;27;20463;-66
2021/06/10 06:05:53;;;;;;;15.47;14.10;;;;;;;;;;5147544;27;20453;-67
2021/06/10 06:08:21;;;;;;;16.77;15.30;;;;;;;;;;5147841;27;20925;-63
2021/06/10 06:10:50;;;;;;;15.27;13.97;;;;;;;;;;5146068;27;20470;-66
2021/06/10 06:13:21;;;;;;;15.53;14.23;;;;;;;;;;5139740;27;20497;-62
2021/06/10 06:15:50;;;;;;;16.20;14.73;;;;;;;;;;5128770;27;20473;-64
2021/06/10 06:18:17;;;;;;;14.93;13.63;;;;;;;;;;5135909;27;20441;-64
2021/06/10 06:20:43;;;;;;;15.37;14.13;;;;;;;;;;5135812;27;20450;-64
2021/06/10 06:23:10;;;;;;;15.70;14.37;;;;;;;;;;5136596;27;20537;-62
2021/06/10 06:25:39;;;;;;;17.77;16.07;;;;;;;;;;5135678;27;20438;-63
2021/06/10 06:28:05;;;;;;;16.50;15.10;;;;;;;;;;5157352;22;21570;-62
2021/06/10 06:30:32;;;;;;;19.27;17.67;;;;;;;;;;5074511;28;20818;-62
2021/06/10 06:32:59;;;;;;;17.00;15.60;;;;;;;;;;5073837;28;20461;-62
2021/06/10 06:35:26;;;;;;;16.87;15.20;;;;;;;;;;5073836;28;20450;-62
2021/06/10 06:37:52;;;;;;;19.23;17.23;;;;;;;;;;5073679;28;20496;-63
2021/06/10 06:40:24;;;;;;;20.13;18.13;;;;;;;;;;5073495;28;20452;-63
2021/06/10 06:42:52;;;;;;;19.20;17.50;;;;;;;;;;5074081;28;20427;-62
2021/06/10 06:45:19;;;;;;;20.60;17.57;;;;;;;;;;5073699;28;20515;-63
2021/06/10 06:47:46;;;;;;;18.63;16.93;;;;;;;;;;5073653;28;20780;-63
2021/06/10 06:50:13;;;;;;;20.13;18.23;;;;;;;;;;5073454;28;20475;-63
2021/06/10 06:52:40;;;;;;;18.97;17.20;;;;;;;;;;5063282;28;20474;-62
2021/06/10 06:55:07;;;;;;;18.20;16.50;;;;;;;;;;5069128;28;20453;-63
2021/06/10 06:57:34;;;;;;;19.50;17.60;;;;;;;;;;5053201;28;20446;-62
2021/06/10 07:00:02;;;;;;;18.83;17.23;;;;;;;;;;5060625;28;20990;-63
2021/06/10 07:02:28;;;;;;;20.17;18.40;;;;;;;;;;5056463;28;20476;-63
2021/06/10 07:04:55;;;;;;;17.93;16.43;;;;;;;;;;5058050;28;20441;-61
2021/06/10 07:07:22;;;;;;;16.50;15.13;;;;;;;;;;5075867;28;20976;-62
2021/06/10 07:09:49;;;;;;;17.10;15.50;;;;;;;;;;5073485;28;20474;-63
2021/06/10 07:12:15;;;;;;;18.57;16.37;;;;;;;;;;5073870;28;20447;-63
2021/06/10 07:14:43;;;;;;;18.93;17.07;;;;;;;;;;5073602;28;20449;-63
2021/06/10 07:17:11;;;;;;;17.43;15.83;;;;;;;;;;5059425;28;20465;-63
2021/06/10 07:19:38;;;;;;;18.67;16.73;;;;;;;;;;5064607;28;20566;-63
2021/06/10 07:22:05;;;;;;;16.90;15.40;;;;;;;;;;5069026;28;20442;-64
2021/06/10 07:24:32;;;;;;;19.33;17.53;;;;;;;;;;5070717;28;20499;-63
2021/06/10 07:26:59;;;;;;;18.60;16.67;;;;;;;;;;5053260;28;20850;-61
2021/06/10 07:29:25;;;;;;;18.57;16.67;;;;;;;;;;5052775;28;20531;-62
2021/06/10 07:31:52;;;;;;;17.60;15.90;;;;;;;;;;5053156;28;20447;-63
2021/06/10 07:34:20;;;;;;;18.57;16.80;;;;;;;;;;5053179;28;20444;-63
2021/06/10 07:36:47;;;;;;;18.83;17.00;;;;;;;;;;5056164;28;20996;-63
2021/06/10 07:39:14;;;;;;;20.40;18.60;;;;;;;;;;5073709;28;21006;-63
2021/06/10 07:41:41;;;;;;;17.70;16.00;;;;;;;;;;5073010;28;20501;-63
2021/06/10 07:44:07;;;;;;;17.23;15.43;;;;;;;;;;5073063;28;20450;-63
2021/06/10 07:46:34;;;;;;;17.60;15.90;;;;;;;;;;5072553;28;20532;-62
2021/06/10 07:49:01;;;;;;;20.50;16.40;;;;;;;;;;5072770;28;20469;-62
2021/06/10 07:51:29;;;;;;;19.57;17.23;;;;;;;;;;5058458;28;20472;-62
2021/06/10 07:53:56;;;;;;;16.57;15.10;;;;;;;;;;5072829;28;20450;-62
2021/06/10 07:56:23;;;;;;;16.67;15.07;;;;;;;;;;5062795;28;20913;-61
2021/06/10 07:58:50;;;;;;;15.50;14.10;;;;;;;;;;5052832;28;20475;-61
2021/06/10 08:01:17;;;;;;;21.77;17.00;;;;;;;;;;5052846;28;20459;-61
2021/06/10 08:03:44;;;;;;;18.67;16.80;;;;;;;;;;5052797;28;20451;-61
2021/06/10 08:06:10;;;;;;;17.90;16.30;;;;;;;;;;5052631;28;20452;-62
2021/06/10 08:08:39;;;;;;;17.20;15.53;;;;;;;;;;5060871;28;20490;-60
2021/06/10 08:11:07;;;;;;;18.47;16.83;;;;;;;;;;5072333;28;20449;-61
2021/06/10 08:13:34;;;;;;;19.23;17.33;;;;;;;;;;5072358;28;20457;-62
2021/06/10 08:16:01;;;;;;;19.37;17.37;;;;;;;;;;5067705;28;20974;-63
2021/06/10 08:18:29;;;;;;;18.90;17.30;;;;;;;;;;5051541;28;20459;-62
2021/06/10 08:20:56;;;;;;;19.20;17.50;;;;;;;;;;5050441;28;20471;-61
2021/06/10 08:23:23;;;;;;;18.77;17.17;;;;;;;;;;5052605;28;20465;-62
2021/06/10 08:25:54;;;;;;;18.77;17.23;;;;;;;;;;5050980;28;20802;-61
2021/06/10 08:28:21;;;;;;;18.07;16.47;;;;;;;;;;5049699;28;20495;-62
2021/06/10 08:30:48;;;;;;;20.87;19.00;;;;;;;;;;5049954;28;20448;-63
2021/06/10 08:33:15;;;;;;;18.40;16.70;;;;;;;;;;5050255;28;20467;-63
2021/06/10 08:35:42;;;;;;;21.47;19.60;;;;;;;;;;5049916;28;20955;-64
2021/06/10 08:38:09;;;;;;;21.97;19.87;;;;;;;;;;5049651;28;20482;-62
2021/06/10 08:40:37;;;;;;;20.93;19.03;;;;;;;;;;5050191;28;20940;-62
2021/06/10 08:43:05;;;;;;;20.83;19.03;;;;;;;;;;5052134;28;20452;-62
2021/06/10 08:45:32;;;;;;;21.97;19.90;;;;;;;;;;5051959;28;20447;-62
2021/06/10 08:48:00;;;;;;;19.33;17.63;;;;;;;;;;5051947;28;20480;-64
2021/06/10 08:50:28;;;;;;;21.70;19.90;;;;;;;;;;5052082;28;20455;-63
2021/06/10 08:52:55;;;;;;;20.80;19.00;;;;;;;;;;5052998;28;20476;-63
2021/06/10 08:55:22;;;;;;;21.50;19.50;;;;;;;;;;5056349;28;20453;-63
2021/06/10 08:57:49;;;;;;;20.47;18.67;;;;;;;;;;5055748;28;20439;-63
2021/06/10 09:00:18;;;;;;;22.23;20.40;;;;;;;;;;5056129;28;21002;-62
2021/06/10 09:02:51;;;;;;;20.47;18.53;;;;;;;;;;5055995;28;20825;-61
2021/06/10 09:05:19;;;;;;;22.07;19.97;;;;;;;;;;5056383;28;20486;-61
2021/06/10 09:07:51;;;;;;;23.57;21.50;;;;;;;;;;5055947;28;20489;-62
2021/06/10 09:10:21;;;;;;;21.53;19.80;;;;;;;;;;5055980;28;20428;-61
2021/06/10 09:12:49;;;;;;;22.73;20.67;;;;;;;;;;5056067;28;20456;-63
2021/06/10 09:15:18;;;;;;;23.73;21.50;;;;;;;;;;5056030;28;20816;-61
2021/06/10 09:17:45;;;;;;;22.43;20.47;;;;;;;;;;5055605;28;20500;-63
2021/06/10 09:20:28;;;;;;;23.23;21.10;;;;;;;;;;5055669;28;20449;-62
2021/06/10 09:23:09;;;;;;;22.07;20.13;;;;;;;;;;5055967;28;20458;-63
2021/06/10 09:25:36;;;;;;;25.57;23.20;;;;;;;;;;5055505;28;20436;-63
2021/06/10 09:28:04;;;;;;;23.57;21.53;;;;;;;;;;5055494;28;20492;-63
2021/06/10 09:30:33;;;;;;;23.30;21.00;;;;;;;;;;5055679;28;20505;-63
2021/06/10 09:33:00;;;;;;;23.90;21.63;;;;;;;;;;5055846;28;20456;-63
2021/06/10 09:35:28;;;;;;;24.47;22.33;;;;;;;;;;5055608;28;20449;-63
2021/06/10 09:37:57;;;;;;;22.50;20.40;;;;;;;;;;5055159;28;20494;-63
2021/06/10 09:40:25;;;;;;;25.60;23.17;;;;;;;;;;5055890;28;20502;-62
2021/06/10 09:42:52;;;;;;;24.00;21.87;;;;;;;;;;5055973;28;20972;-62
2021/06/10 09:45:19;;;;;;;24.67;22.23;;;;;;;;;;5055260;28;20540;-63
2021/06/10 09:47:50;;;;;;;22.83;20.87;;;;;;;;;;5054686;28;20493;-63
2021/06/10 09:50:19;;;;;;;26.70;21.60;;;;;;;;;;5055413;28;20455;-61
2021/06/10 09:52:50;;;;;;;25.40;22.77;;;;;;;;;;5055342;28;20451;-61
2021/06/10 09:55:31;;;;;;;24.70;22.37;;;;;;;;;;5054805;28;20476;-61
2021/06/10 09:57:58;;;;;;;22.10;20.13;;;;;;;;;;5055304;28;20515;-61
2021/06/10 10:00:25;;;;;;;22.77;20.77;;;;;;;;;;5055113;28;20537;-63
2021/06/10 10:02:53;;;;;;;24.03;21.80;;;;;;;;;;5054882;28;20509;-62
2021/06/10 10:05:22;;;;;;;22.40;20.13;;;;;;;;;;5054767;28;20451;-62
2021/06/10 10:07:50;;;;;;;23.60;21.60;;;;;;;;;;5055406;28;20490;-62
2021/06/10 10:10:17;;;;;;;25.13;22.77;;;;;;;;;;5054690;28;20446;-61
2021/06/10 10:12:45;;;;;;;22.90;20.90;;;;;;;;;;5060499;28;20450;-61
2021/06/10 10:15:12;;;;;;;21.53;19.63;;;;;;;;;;5055372;28;20853;-60
2021/06/10 10:17:39;;;;;;;18.10;16.30;;;;;;;;;;5054272;28;20815;-62
2021/06/10 10:20:09;;;;;;;16.10;14.60;;;;;;;;;;5055029;28;20807;-63
2021/06/10 10:22:36;;;;;;;21.00;19.10;;;;;;;;;;5054699;28;20447;-61
2021/06/10 10:25:03;;;;;;;19.87;17.97;;;;;;;;;;5055534;28;20441;-62
2021/06/10 10:27:29;;;;;;;19.90;18.07;;;;;;;;;;5054803;28;20482;-62
2021/06/10 10:29:56;;;;;;;19.30;17.70;;;;;;;;;;5054069;28;20463;-65
2021/06/10 10:32:25;;;;;;;15.40;14.10;;;;;;;;;;5054559;28;20461;-63
2021/06/10 10:34:51;;;;;;;12.97;11.67;;;;;;;;;;5054674;28;20448;-62
2021/06/10 10:37:21;;;;;;;6.73;6.13;;;;;;;;;;5053676;28;20438;-61
2021/06/10 10:39:48;;;;;;;6.70;6.10;;;;;;;;;;5053615;28;20474;-62
2021/06/10 10:42:28;;;;;;;12.43;11.33;;;;;;;;;;5054333;28;20444;-62
2021/06/10 10:45:10;;;;;;;10.33;9.37;;;;;;;;;;5053761;28;20485;-63
2021/06/10 10:47:41;;;;;;;11.63;10.63;;;;;;;;;;5053170;28;20465;-64
2021/06/10 10:50:08;;;;;;;10.03;9.07;;;;;;;;;;5054439;28;20425;-62
2021/06/10 10:52:39;;;;;;;8.23;7.50;;;;;;;;;;5053513;28;20635;-62
2021/06/10 10:55:14;;;;;;;7.67;7.07;;;;;;;;;;5053223;28;20455;-61
2021/06/10 10:57:41;;;;;;;7.60;7.00;;;;;;;;;;5053976;28;20421;-62
2021/06/10 11:00:09;;;;;;;7.17;6.47;;;;;;;;;;5053539;28;20504;-61
2021/06/10 11:02:40;;;;;;;9.90;8.90;;;;;;;;;;5053685;28;20450;-62
2021/06/10 11:05:09;;;;;;;9.67;8.77;;;;;;;;;;5053161;28;20922;-62
2021/06/10 11:07:53;;;;;;;10.73;9.63;;;;;;;;;;5053141;28;20492;-63
2021/06/10 11:10:35;;;;;;;8.30;7.53;;;;;;;;;;5053571;28;20431;-61
2021/06/10 11:13:14;;;;;;;9.00;8.10;;;;;;;;;;5037237;28;20500;-62
2021/06/10 11:15:48;;;;;;;8.27;7.47;;;;;;;;;;5052471;28;20431;-61
2021/06/10 11:18:15;;;;;;;6.97;6.33;;;;;;;;;;5053331;28;20557;-61
2021/06/10 11:20:43;;;;;;;6.47;5.80;;;;;;;;;;5053314;28;20876;-61
2021/06/10 11:23:14;;;;;;;7.77;6.80;;;;;;;;;;5052771;28;20957;-60
2021/06/10 11:25:43;;;;;;;8.30;7.53;;;;;;;;;;5053220;28;20528;-60
2021/06/10 11:28:11;;;;;;;7.50;6.77;;;;;;;;;;5052838;28;20574;-62
2021/06/10 11:30:39;;;;;;;7.53;6.90;;;;;;;;;;5053170;28;20443;-61
2021/06/10 11:33:10;;;;;;;9.00;8.30;;;;;;;;;;5053064;28;20457;-61
2021/06/10 11:35:43;;;;;;;7.80;7.00;;;;;;;;;;5052819;28;20518;-60
2021/06/10 11:38:11;;;;;;;7.63;6.97;;;;;;;;;;5052132;28;20980;-62
2021/06/10 11:40:40;;;;;;;7.43;6.83;;;;;;;;;;5053047;28;20446;-60
2021/06/10 11:43:07;;;;;;;7.10;6.60;;;;;;;;;;5052919;28;20487;-61
2021/06/10 11:45:33;;;;;;;5.70;5.23;;;;;;;;;;5052294;28;20454;-62
2021/06/10 11:48:00;;;;;;;6.33;5.83;;;;;;;;;;5052781;28;20487;-62
2021/06/10 11:50:29;;;;;;;5.60;5.10;;;;;;;;;;5052718;28;20446;-60
2021/06/10 11:52:57;;;;;;;6.50;5.07;;;;;;;;;;5052988;28;20443;-61
2021/06/10 11:55:24;;;;;;;6.60;4.80;;;;;;;;;;5052814;28;20440;-61
2021/06/10 11:57:56;;;;;;;6.60;6.03;;;;;;;;;;5052675;28;20473;-60
2021/06/10 12:00:27;;;;;;;5.53;5.13;;;;;;;;;;5052830;28;20453;-60
2021/06/10 12:02:58;;;;;;;5.10;4.60;;;;;;;;;;5052933;28;20448;-60
2021/06/10 12:05:25;;;;;;;5.77;4.83;;;;;;;;;;5052841;28;20458;-60
2021/06/10 12:08:06;;;;;;;5.53;5.00;;;;;;;;;;5052446;28;20499;-60
2021/06/10 12:10:32;;;;;;;5.67;5.17;;;;;;;;;;5052797;28;20434;-61
2021/06/10 12:13:01;;;;;;;6.27;4.90;;;;;;;;;;5052759;28;20837;-60
2021/06/10 12:15:30;;;;;;;6.50;5.90;;;;;;;;;;5053268;28;20441;-61
2021/06/10 12:17:57;;;;;;;6.67;4.40;;;;;;;;;;5053079;28;20554;-60
2021/06/10 12:20:25;;;;;;;6.40;4.90;;;;;;;;;;5052773;28;20448;-60
2021/06/10 12:22:52;;;;;;;6.57;6.07;;;;;;;;;;5052804;28;20447;-61
2021/06/10 12:25:20;;;;;;;5.83;5.30;;;;;;;;;;5052567;28;20787;-61
2021/06/10 12:27:46;;;;;;;9.30;4.77;;;;;;;;;;5052227;28;20487;-61
2021/06/10 12:30:30;;;;;;;5.40;5.00;;;;;;;;;;5056179;28;20429;-61
2021/06/10 12:33:11;;;;;;;5.10;4.60;;;;;;;;;;5055024;28;20454;-61
2021/06/10 12:35:40;;;;;;;4.50;4.03;;;;;;;;;;5056643;28;20435;-60
2021/06/10 12:38:07;;;;;;;4.47;3.77;;;;;;;;;;5056375;28;20801;-60
2021/06/10 12:40:37;;;;;;;4.60;4.20;;;;;;;;;;5056437;28;20444;-60
2021/06/10 12:43:08;;;;;;;4.40;4.00;;;;;;;;;;5056504;28;20452;-60
2021/06/10 12:45:35;;;;;;;4.80;4.40;;;;;;;;;;5056578;28;20449;-60
2021/06/10 12:48:02;;;;;;;5.00;4.27;;;;;;;;;;5056349;28;20485;-60
2021/06/10 12:50:29;;;;;;;5.37;4.97;;;;;;;;;;5055672;28;20857;-60
2021/06/10 12:52:57;;;;;;;4.90;4.40;;;;;;;;;;5055963;28;20454;-60
2021/06/10 12:55:28;;;;;;;4.90;4.50;;;;;;;;;;5056202;28;20459;-60
2021/06/10 12:57:58;;;;;;;4.90;4.43;;;;;;;;;;5056053;28;20465;-60
2021/06/10 13:00:31;;;;;;;5.30;4.70;;;;;;;;;;5056113;28;20451;-60
2021/06/10 13:03:16;;;;;;;4.50;4.10;;;;;;;;;;5056051;28;20442;-60
2021/06/10 13:05:43;;;;;;;11.23;3.80;;;;;;;;;;5055802;28;20435;-60
2021/06/10 13:08:12;;;;;;;3.50;3.20;;;;;;;;;;5056151;28;20905;-60
2021/06/10 13:10:40;;;;;;;3.47;3.20;;;;;;;;;;5055836;28;20939;-60
2021/06/10 13:13:08;;;;;;;4.00;3.60;;;;;;;;;;5055759;28;20512;-60
2021/06/10 13:15:35;;;;;;;3.83;3.53;;;;;;;;;;5055649;28;20451;-60
2021/06/10 13:18:04;;;;;;;5.27;3.70;;;;;;;;;;5055640;28;21002;-60
2021/06/10 13:20:48;;;;;;;3.97;3.23;;;;;;;;;;5056445;28;20455;-59
2021/06/10 13:23:17;;;;;;;3.00;2.80;;;;;;;;;;5055960;28;20872;-59
2021/06/10 13:25:44;;;;;;;3.40;3.10;;;;;;;;;;5055548;28;20771;-59
2021/06/10 13:28:15;;;;;;;3.73;3.43;;;;;;;;;;5055631;28;20493;-59
2021/06/10 13:30:42;;;;;;;3.57;3.27;;;;;;;;;;5056487;28;20783;-60
2021/06/10 13:33:09;;;;;;;3.40;3.10;;;;;;;;;;5054964;28;20446;-60
2021/06/10 13:35:42;;;;;;;3.77;3.37;;;;;;;;;;5055703;28;20546;-60
2021/06/10 13:38:11;;;;;;;3.93;3.50;;;;;;;;;;5056039;28;20463;-60
2021/06/10 13:40:39;;;;;;;3.67;3.37;;;;;;;;;;5054757;28;20454;-60
2021/06/10 13:43:06;;;;;;;3.80;3.50;;;;;;;;;;5055421;28;20459;-60
2021/06/10 13:45:33;;;;;;;3.50;3.20;;;;;;;;;;5056260;28;20450;-60
2021/06/10 13:48:00;;;;;;;4.20;3.37;;;;;;;;;;5055025;28;20540;-60
2021/06/10 13:50:27;;;;;;;3.80;3.50;;;;;;;;;;5054819;28;20934;-60
2021/06/10 13:52:54;;;;;;;3.77;3.43;;;;;;;;;;5054983;28;20943;-60
2021/06/10 13:55:21;;;;;;;3.67;3.37;;;;;;;;;;5054829;28;20451;-60
2021/06/10 13:57:49;;;;;;;2.93;2.73;;;;;;;;;;5055012;28;20439;-60
2021/06/10 14:00:19;;;;;;;5.00;2.93;;;;;;;;;;5054931;28;20446;-60
2021/06/10 14:02:46;;;;;;;3.63;3.20;;;;;;;;;;5055410;28;20447;-60
2021/06/10 14:05:13;;;;;;;3.70;3.40;;;;;;;;;;5054931;28;20458;-60
2021/06/10 14:07:40;;;;;;;3.70;3.40;;;;;;;;;;5054482;28;20509;-60
2021/06/10 14:10:07;;;;;;;3.67;3.37;;;;;;;;;;5054331;28;20910;-60
2021/06/10 14:12:34;;;;;;;3.73;3.43;;;;;;;;;;5054362;28;20451;-60
2021/06/10 14:15:02;;;;;;;3.50;3.20;;;;;;;;;;5054937;28;20451;-60
2021/06/10 14:17:29;;;;;;;4.53;3.23;;;;;;;;;;5054577;28;20450;-59
2021/06/10 14:19:56;;;;;;;3.50;3.20;;;;;;;;;;5054323;28;20454;-61
2021/06/10 14:22:23;;;;;;;3.57;3.00;;;;;;;;;;5054697;28;20506;-60
2021/06/10 14:24:50;;;;;;;2.80;2.50;;;;;;;;;;5054203;28;20471;-61
2021/06/10 14:27:19;;;;;;;3.10;2.80;;;;;;;;;;5054338;28;20489;-59
2021/06/10 14:29:47;;;;;;;3.20;3.00;;;;;;;;;;5055030;28;20540;-59
2021/06/10 14:32:19;;;;;;;3.87;2.83;;;;;;;;;;5054655;28;20459;-61